createdAt,value
2017-12-12T00:02:07.940Z,2.78
2017-12-12T00:04:35.525Z,2.88
2017-12-12T00:07:03.136Z,2.74
2017-12-12T00:09:30.684Z,2.77
2017-12-12T00:11:58.208Z,2.84
2017-12-12T00:14:25.765Z,2.97
2017-12-12T00:16:53.361Z,2.85
2017-12-12T00:19:20.981Z,3.27
2017-12-12T00:21:48.673Z,3.44
2017-12-12T00:24:16.439Z,3.41
2017-12-12T00:26:44.079Z,3.05
2017-12-12T00:29:11.881Z,2.31
2017-12-12T00:31:39.712Z,2.31
2017-12-12T00:34:07.405Z,2.68
2017-12-12T00:36:35.447Z,2.83
2017-12-12T00:39:03.788Z,2.57
2017-12-12T00:41:31.471Z,2.64
2017-12-12T00:43:59.057Z,2.74
2017-12-12T00:46:26.733Z,2.86
2017-12-12T00:48:54.324Z,2.42
2017-12-12T00:51:21.881Z,2.50
2017-12-12T00:53:49.488Z,2.19
2017-12-12T00:56:17.289Z,2.40
2017-12-12T00:58:44.858Z,2.78
2017-12-12T01:01:12.416Z,2.77
2017-12-12T01:03:39.972Z,2.56
2017-12-12T01:06:07.511Z,2.59
2017-12-12T01:08:35.048Z,2.23
2017-12-12T01:11:05.792Z,2.47
2017-12-12T01:13:35.844Z,2.62
2017-12-12T01:16:07.308Z,2.54
2017-12-12T01:21:20.943Z,2.38
2017-12-12T01:23:51.301Z,2.39
2017-12-12T01:26:19.744Z,2.50
2017-12-12T01:28:49.838Z,2.45
2017-12-12T01:31:17.710Z,2.28
2017-12-12T01:33:45.498Z,2.22
2017-12-12T01:36:13.032Z,1.73
2017-12-12T01:38:40.625Z,1.85
2017-12-12T01:41:08.161Z,2.06
2017-12-12T01:43:35.735Z,1.96
2017-12-12T01:46:03.382Z,1.90
2017-12-12T01:48:30.954Z,2.26
2017-12-12T01:50:58.530Z,2.10
2017-12-12T01:53:26.109Z,2.37
2017-12-12T01:55:53.745Z,2.18
2017-12-12T01:58:21.333Z,2.04
2017-12-12T02:00:48.912Z,2.32
2017-12-12T02:03:16.475Z,2.33
2017-12-12T02:05:44.308Z,1.98
2017-12-12T02:08:11.870Z,1.94
2017-12-12T02:10:39.475Z,1.79
2017-12-12T02:13:07.010Z,1.65
2017-12-12T02:15:34.589Z,1.73
2017-12-12T02:18:02.405Z,1.81
2017-12-12T02:20:30.221Z,2.03
2017-12-12T02:22:57.759Z,1.98
2017-12-12T02:25:25.321Z,2.07
2017-12-12T02:27:52.846Z,2.17
2017-12-12T02:30:20.427Z,2.01
2017-12-12T02:32:48.072Z,1.89
2017-12-12T02:35:15.853Z,1.98
2017-12-12T02:37:43.468Z,1.86
2017-12-12T02:40:11.009Z,1.66
2017-12-12T02:42:38.594Z,1.63
2017-12-12T02:45:06.188Z,1.66
2017-12-12T02:47:33.826Z,1.75
2017-12-12T02:50:01.448Z,1.89
2017-12-12T02:52:29.029Z,2.09
2017-12-12T02:54:56.586Z,1.86
2017-12-12T02:57:24.369Z,2.03
2017-12-12T02:59:51.926Z,1.97
2017-12-12T03:02:19.656Z,1.95
2017-12-12T03:04:47.213Z,2.09
2017-12-12T03:07:14.750Z,2.09
2017-12-12T03:09:42.656Z,1.90
2017-12-12T03:12:10.208Z,1.88
2017-12-12T03:14:37.736Z,2.04
2017-12-12T03:17:05.373Z,2.11
2017-12-12T03:19:33.008Z,1.97
2017-12-12T03:22:00.570Z,1.97
2017-12-12T03:24:28.224Z,1.82
2017-12-12T03:26:55.790Z,1.97
2017-12-12T03:29:23.346Z,1.50
2017-12-12T03:31:50.973Z,1.61
2017-12-12T03:34:18.593Z,1.69
2017-12-12T03:36:46.353Z,1.58
2017-12-12T03:39:13.952Z,1.66
2017-12-12T03:41:41.521Z,1.85
2017-12-12T03:44:09.629Z,1.71
2017-12-12T03:46:37.239Z,1.79
2017-12-12T03:49:09.762Z,1.94
2017-12-12T03:51:37.382Z,1.89
2017-12-12T03:54:05.073Z,1.74
2017-12-12T03:56:32.663Z,1.99
2017-12-12T03:59:00.269Z,1.88
2017-12-12T04:01:27.966Z,1.22
2017-12-12T04:03:55.583Z,1.29
2017-12-12T04:06:23.201Z,1.62
2017-12-12T04:08:50.750Z,1.69
2017-12-12T04:11:18.370Z,1.55
2017-12-12T04:13:45.921Z,1.21
2017-12-12T04:16:13.562Z,1.21
2017-12-12T04:18:41.183Z,1.30
2017-12-12T04:21:08.789Z,0.96
2017-12-12T04:23:36.442Z,1.37
2017-12-12T04:26:03.993Z,1.19
2017-12-12T04:28:31.547Z,0.90
2017-12-12T04:30:59.460Z,1.01
2017-12-12T04:33:27.031Z,1.00
2017-12-12T04:35:54.629Z,0.70
2017-12-12T04:38:22.272Z,1.00
2017-12-12T04:40:49.844Z,0.83
2017-12-12T04:43:17.595Z,1.22
2017-12-12T04:45:45.182Z,1.26
2017-12-12T04:48:12.757Z,0.85
2017-12-12T04:50:40.353Z,1.01
2017-12-12T04:53:08.037Z,0.65
2017-12-12T04:55:35.799Z,0.64
2017-12-12T04:58:03.451Z,0.73
2017-12-12T05:00:31.058Z,0.47
2017-12-12T05:02:58.838Z,0.83
2017-12-12T05:05:26.436Z,1.09
2017-12-12T05:07:54.153Z,0.83
2017-12-12T05:10:21.797Z,1.11
2017-12-12T05:12:49.414Z,1.38
2017-12-12T05:15:17.022Z,1.25
2017-12-12T05:17:45.390Z,1.44
2017-12-12T05:20:13.597Z,1.70
2017-12-12T05:22:41.409Z,1.57
2017-12-12T05:25:08.969Z,1.58
2017-12-12T05:27:36.495Z,1.86
2017-12-12T05:30:05.905Z,2.13
2017-12-12T05:32:33.455Z,2.12
2017-12-12T05:35:01.013Z,2.09
2017-12-12T05:37:28.601Z,1.80
2017-12-12T05:39:56.131Z,1.59
2017-12-12T05:42:24.103Z,1.53
2017-12-12T05:44:51.682Z,1.53
2017-12-12T05:47:19.220Z,1.04
2017-12-12T05:49:47.027Z,0.72
2017-12-12T05:52:14.614Z,0.83
2017-12-12T05:54:42.174Z,1.18
2017-12-12T05:57:09.718Z,0.99
2017-12-12T05:59:37.334Z,1.49
2017-12-12T06:02:04.914Z,1.95
2017-12-12T06:04:32.480Z,2.44
2017-12-12T06:07:00.011Z,2.62
2017-12-12T06:09:27.814Z,3.17
2017-12-12T06:11:55.419Z,3.74
2017-12-12T06:14:22.980Z,3.98
2017-12-12T06:16:50.573Z,4.89
2017-12-12T06:19:18.112Z,5.68
2017-12-12T06:21:46.174Z,6.17
2017-12-12T06:24:13.788Z,6.01
2017-12-12T06:26:41.692Z,6.45
2017-12-12T06:29:09.358Z,6.38
2017-12-12T06:31:37.944Z,6.17
2017-12-12T06:34:05.545Z,6.50
2017-12-12T06:36:33.085Z,6.85
2017-12-12T06:39:00.711Z,7.45
2017-12-12T06:41:28.549Z,7.60
2017-12-12T06:43:56.340Z,7.66
2017-12-12T06:46:23.985Z,8.98
2017-12-12T06:48:51.557Z,8.70
2017-12-12T06:51:19.105Z,8.90
2017-12-12T06:53:46.661Z,9.13
2017-12-12T06:56:14.472Z,8.78
2017-12-12T06:58:42.051Z,8.91
2017-12-12T07:01:09.616Z,10.22
2017-12-12T07:03:37.165Z,10.53
2017-12-12T07:06:04.704Z,11.05
2017-12-12T07:08:32.324Z,12.48
2017-12-12T07:11:00.139Z,12.13
2017-12-12T07:13:27.764Z,12.34
2017-12-12T07:15:55.911Z,11.03
2017-12-12T07:18:23.536Z,12.05
2017-12-12T07:20:51.145Z,12.58
2017-12-12T07:23:18.801Z,13.46
2017-12-12T07:25:46.374Z,13.99
2017-12-12T07:28:14.426Z,13.29
2017-12-12T07:30:42.037Z,12.50
2017-12-12T07:33:09.645Z,11.42
2017-12-12T07:35:37.260Z,14.07
2017-12-12T07:38:04.879Z,14.80
2017-12-12T07:40:32.485Z,15.12
2017-12-12T07:43:00.265Z,15.82
2017-12-12T07:45:27.932Z,15.66
2017-12-12T07:47:55.718Z,16.25
2017-12-12T07:50:23.274Z,16.89
2017-12-12T07:52:50.863Z,17.89
2017-12-12T07:55:18.637Z,18.22
2017-12-12T07:57:46.403Z,17.09
2017-12-12T08:00:14.018Z,16.82
2017-12-12T08:02:41.566Z,17.89
2017-12-12T08:05:09.171Z,17.76
2017-12-12T08:07:36.882Z,18.70
2017-12-12T08:10:04.498Z,18.28
2017-12-12T08:12:32.058Z,18.01
2017-12-12T08:14:59.764Z,18.04
2017-12-12T08:17:27.494Z,17.10
2017-12-12T08:19:55.307Z,18.22
2017-12-12T08:22:22.918Z,18.32
2017-12-12T08:24:50.770Z,15.43
2017-12-12T08:27:18.314Z,18.04
2017-12-12T08:29:45.864Z,16.75
2017-12-12T08:32:13.679Z,18.00
2017-12-12T08:34:41.232Z,18.08
2017-12-12T08:37:08.785Z,18.13
2017-12-12T08:39:36.422Z,18.89
2017-12-12T08:42:04.398Z,16.49
2017-12-12T08:44:31.958Z,18.32
2017-12-12T08:47:00.501Z,16.75
2017-12-12T08:49:28.122Z,18.15
2017-12-12T08:51:55.642Z,17.83
2017-12-12T08:54:23.216Z,18.20
2017-12-12T08:56:51.019Z,17.63
2017-12-12T08:59:18.592Z,15.82
2017-12-12T09:01:46.196Z,18.83
2017-12-12T09:04:14.130Z,16.75
2017-12-12T09:06:41.732Z,16.31
2017-12-12T09:09:09.358Z,16.98
2017-12-12T09:11:36.930Z,17.08
2017-12-12T09:14:04.690Z,18.44
2017-12-12T09:16:32.285Z,17.18
2017-12-12T09:18:59.884Z,17.05
2017-12-12T09:21:27.767Z,17.97
2017-12-12T09:23:55.377Z,19.12
2017-12-12T09:26:22.993Z,18.18
2017-12-12T09:28:50.543Z,18.84
2017-12-12T09:31:18.124Z,18.28
2017-12-12T09:33:45.698Z,17.61
2017-12-12T09:36:13.298Z,18.07
2017-12-12T09:38:40.885Z,18.01
2017-12-12T09:41:08.489Z,17.20
2017-12-12T09:43:36.250Z,18.48
2017-12-12T09:46:03.833Z,16.88
2017-12-12T09:48:31.638Z,16.15
2017-12-12T09:50:59.178Z,17.42
2017-12-12T09:53:26.722Z,17.65
2017-12-12T09:55:54.305Z,16.58
2017-12-12T09:58:21.838Z,16.86
2017-12-12T10:00:49.423Z,16.93
2017-12-12T10:03:17.004Z,16.17
2017-12-12T10:05:44.574Z,16.76
2017-12-12T10:08:12.173Z,16.75
2017-12-12T10:10:39.715Z,16.16
2017-12-12T10:13:07.302Z,16.35
2017-12-12T10:15:35.021Z,16.64
2017-12-12T10:18:02.546Z,16.30
2017-12-12T10:20:30.364Z,15.86
2017-12-12T10:22:57.967Z,15.86
2017-12-12T10:25:25.529Z,16.12
2017-12-12T10:27:53.159Z,16.22
2017-12-12T10:30:20.799Z,16.24
2017-12-12T10:32:48.369Z,16.92
2017-12-12T10:35:15.944Z,16.14
2017-12-12T10:37:43.530Z,16.04
2017-12-12T10:40:11.117Z,13.60
2017-12-12T10:42:38.701Z,14.38
2017-12-12T10:45:06.295Z,15.53
2017-12-12T10:47:33.845Z,15.19
2017-12-12T10:50:01.409Z,14.66
2017-12-12T10:52:28.947Z,13.46
2017-12-12T10:54:56.762Z,12.86
2017-12-12T10:57:24.377Z,13.28
2017-12-12T10:59:52.005Z,13.28
2017-12-12T11:02:19.601Z,13.96
2017-12-12T11:04:47.155Z,13.99
2017-12-12T11:07:14.821Z,13.21
2017-12-12T11:09:42.422Z,12.79
2017-12-12T11:12:09.979Z,12.93
2017-12-12T11:14:37.599Z,14.25
2017-12-12T11:17:05.183Z,13.87
2017-12-12T11:19:32.764Z,13.83
2017-12-12T11:22:00.420Z,13.48
2017-12-12T11:24:28.035Z,13.53
2017-12-12T11:26:55.668Z,14.54
2017-12-12T11:29:23.242Z,14.51
2017-12-12T11:31:50.854Z,14.47
2017-12-12T11:34:18.706Z,14.44
2017-12-12T11:36:46.265Z,14.00
2017-12-12T11:39:13.822Z,14.02
2017-12-12T11:41:41.371Z,14.59
2017-12-12T11:44:08.900Z,14.66
2017-12-12T11:46:36.490Z,13.99
2017-12-12T11:49:04.042Z,14.80
2017-12-12T11:51:31.632Z,15.25
2017-12-12T11:53:59.170Z,15.26
2017-12-12T11:56:26.798Z,15.33
2017-12-12T11:58:54.358Z,15.69
2017-12-12T12:01:21.929Z,15.23
2017-12-12T12:03:49.468Z,14.98
2017-12-12T12:06:17.027Z,15.36
2017-12-12T12:08:44.645Z,15.05
2017-12-12T12:11:12.249Z,15.22
2017-12-12T12:13:39.806Z,14.79
2017-12-12T12:16:07.386Z,15.10
2017-12-12T12:18:34.930Z,14.59
2017-12-12T12:21:02.536Z,14.36
2017-12-12T12:23:30.249Z,15.06
2017-12-12T12:31:59.553Z,15.74
2017-12-12T12:34:27.111Z,14.75
2017-12-12T12:36:54.700Z,14.78
2017-12-12T12:39:22.317Z,15.11
2017-12-12T12:41:49.883Z,15.35
2017-12-12T12:44:17.434Z,15.37
2017-12-12T12:46:45.140Z,14.78
2017-12-12T12:49:12.780Z,14.90
2017-12-12T12:51:40.408Z,14.98
2017-12-12T12:54:07.989Z,14.66
2017-12-12T12:56:35.558Z,14.95
2017-12-12T12:59:03.102Z,15.31
2017-12-12T13:01:30.669Z,15.82
2017-12-12T13:03:58.283Z,15.64
2017-12-12T13:06:26.639Z,15.84
2017-12-12T13:08:54.232Z,15.70
2017-12-12T13:11:21.805Z,15.25
2017-12-12T13:13:49.363Z,15.05
2017-12-12T13:16:17.364Z,15.18
2017-12-12T13:18:44.986Z,15.01
2017-12-12T13:21:12.531Z,14.80
2017-12-12T13:23:40.079Z,15.14
2017-12-12T13:26:07.637Z,15.00
2017-12-12T13:28:35.213Z,14.95
2017-12-12T13:31:02.810Z,15.25
2017-12-12T13:33:30.362Z,15.51
2017-12-12T13:35:58.150Z,15.59
2017-12-12T13:38:25.729Z,14.86
2017-12-12T13:40:53.261Z,14.44
2017-12-12T13:43:21.011Z,15.09
2017-12-12T13:45:48.606Z,15.22
2017-12-12T13:48:16.139Z,14.12
2017-12-12T13:50:43.668Z,14.50
2017-12-12T13:53:11.236Z,14.91
2017-12-12T13:55:39.505Z,15.04
2017-12-12T13:58:07.068Z,15.08
2017-12-12T14:00:34.663Z,15.01
2017-12-12T14:03:02.194Z,15.15
2017-12-12T14:05:29.722Z,15.31
2017-12-12T14:07:58.088Z,14.64
2017-12-12T14:10:25.654Z,14.53
2017-12-12T14:12:53.213Z,14.03
2017-12-12T14:15:20.830Z,14.20
2017-12-12T14:17:48.356Z,14.39
2017-12-12T14:20:15.910Z,13.83
2017-12-12T14:22:43.487Z,14.19
2017-12-12T14:25:11.010Z,14.04
2017-12-12T14:27:38.565Z,13.84
2017-12-12T14:30:08.412Z,13.84
2017-12-12T14:32:35.978Z,13.48
2017-12-12T14:35:03.506Z,13.19
2017-12-12T14:37:31.167Z,12.68
2017-12-12T14:39:58.702Z,13.02
2017-12-12T14:42:26.273Z,12.79
2017-12-12T14:44:53.937Z,12.76
2017-12-12T14:47:21.512Z,12.83
2017-12-12T14:49:49.076Z,12.78
2017-12-12T14:52:16.626Z,12.79
2017-12-12T14:54:44.156Z,12.80
2017-12-12T14:57:11.730Z,12.82
2017-12-12T14:59:39.297Z,12.29
2017-12-12T15:02:06.982Z,12.35
2017-12-12T15:04:34.527Z,12.33
2017-12-12T15:07:02.057Z,11.95
2017-12-12T15:09:29.606Z,11.92
2017-12-12T15:11:57.209Z,12.20
2017-12-12T15:14:24.796Z,12.00
2017-12-12T15:16:52.531Z,11.69
2017-12-12T15:19:20.164Z,11.69
2017-12-12T15:21:48.068Z,11.72
2017-12-12T15:24:15.634Z,11.48
2017-12-12T15:26:43.164Z,11.52
2017-12-12T15:29:10.727Z,11.49
2017-12-12T15:31:38.976Z,11.21
2017-12-12T15:34:06.545Z,11.49
2017-12-12T15:36:34.090Z,11.40
2017-12-12T15:39:01.788Z,11.35
2017-12-12T15:41:29.334Z,11.37
2017-12-12T15:43:56.993Z,11.14
2017-12-12T15:46:24.625Z,11.04
2017-12-12T15:48:52.180Z,10.98
2017-12-12T15:51:19.738Z,10.80
2017-12-12T15:53:47.319Z,10.73
2017-12-12T15:56:14.853Z,10.79
2017-12-12T15:58:42.401Z,10.88
2017-12-12T16:01:10.016Z,10.65
2017-12-12T16:03:37.854Z,10.76
2017-12-12T16:06:05.428Z,10.69
2017-12-12T16:08:33.037Z,10.37
2017-12-12T16:11:01.010Z,10.13
2017-12-12T16:13:28.633Z,10.38
2017-12-12T16:15:56.226Z,10.33
2017-12-12T16:18:24.028Z,10.32
2017-12-12T16:20:51.618Z,10.12
2017-12-12T16:23:19.273Z,10.31
2017-12-12T16:25:46.874Z,10.39
2017-12-12T16:28:14.434Z,10.32
2017-12-12T16:30:42.034Z,10.50
2017-12-12T16:33:09.617Z,10.26
2017-12-12T16:35:37.162Z,10.31
2017-12-12T16:38:04.762Z,10.19
2017-12-12T16:40:32.352Z,10.05
2017-12-12T16:42:59.911Z,10.16
2017-12-12T16:45:27.504Z,10.14
2017-12-12T16:47:55.075Z,10.49
2017-12-12T16:50:22.625Z,10.19
2017-12-12T16:52:50.227Z,10.03
2017-12-12T16:55:17.771Z,10.36
2017-12-12T16:57:46.171Z,10.29
2017-12-12T17:00:13.979Z,9.68
2017-12-12T17:02:41.576Z,10.27
2017-12-12T17:05:09.149Z,10.02
2017-12-12T17:07:36.926Z,10.02
2017-12-12T17:10:04.481Z,9.95
2017-12-12T17:12:34.891Z,9.73
2017-12-12T17:17:41.010Z,10.00
2017-12-12T17:20:10.607Z,10.07
2017-12-12T17:22:47.915Z,9.91
2017-12-12T17:25:18.731Z,9.98
2017-12-12T17:27:48.584Z,9.64
2017-12-12T17:30:23.677Z,9.87
2017-12-12T17:32:51.426Z,9.92
2017-12-12T17:35:21.190Z,10.09
2017-12-12T17:37:53.183Z,10.08
2017-12-12T17:40:20.976Z,10.14
2017-12-12T17:42:48.524Z,9.71
2017-12-12T17:45:16.386Z,9.75
2017-12-12T17:47:43.955Z,9.41
2017-12-12T17:50:11.506Z,9.45
2017-12-12T17:52:39.360Z,9.24
2017-12-12T17:55:07.150Z,9.31
2017-12-12T17:57:34.748Z,9.60
2017-12-12T18:00:02.384Z,9.58
2017-12-12T18:02:29.966Z,9.21
2017-12-12T18:04:57.565Z,9.02
2017-12-12T18:07:25.430Z,9.32
2017-12-12T18:09:53.012Z,9.41
2017-12-12T18:12:20.642Z,9.24
2017-12-12T18:14:48.318Z,9.29
2017-12-12T18:17:16.375Z,9.01
2017-12-12T18:19:43.921Z,8.90
2017-12-12T18:22:12.032Z,9.15
2017-12-12T18:24:40.557Z,8.84
2017-12-12T18:27:08.508Z,8.93
2017-12-12T18:29:36.429Z,8.92
2017-12-12T18:32:04.039Z,8.85
2017-12-12T18:34:32.479Z,9.05
2017-12-12T18:37:00.041Z,9.10
2017-12-12T18:39:28.545Z,8.87
2017-12-12T18:41:56.174Z,9.08
2017-12-12T18:44:23.756Z,8.89
2017-12-12T18:46:51.602Z,8.87
2017-12-12T18:49:20.412Z,8.43
2017-12-12T18:51:48.646Z,8.76
2017-12-12T18:54:16.352Z,8.81
2017-12-12T18:56:44.196Z,8.75
2017-12-12T18:59:11.801Z,8.60
2017-12-12T19:01:39.759Z,8.56
2017-12-12T19:04:08.454Z,8.61
2017-12-12T19:06:36.256Z,8.41
2017-12-12T19:09:03.910Z,8.60
2017-12-12T19:11:31.655Z,8.39
2017-12-12T19:13:59.374Z,8.62
2017-12-12T19:16:27.184Z,8.46
2017-12-12T19:18:54.972Z,8.35
2017-12-12T19:21:22.630Z,7.95
2017-12-12T19:23:51.599Z,8.30
2017-12-12T19:26:19.461Z,8.15
2017-12-12T19:28:47.174Z,7.66
2017-12-12T19:31:16.120Z,8.00
2017-12-12T19:33:43.884Z,7.88
2017-12-12T19:36:11.730Z,7.85
2017-12-12T19:38:40.352Z,7.93
2017-12-12T19:41:07.969Z,7.98
2017-12-12T19:43:35.599Z,7.97
2017-12-12T19:46:03.530Z,8.12
2017-12-12T19:48:31.495Z,7.97
2017-12-12T19:50:59.337Z,7.58
2017-12-12T19:53:27.142Z,8.00
2017-12-12T19:55:54.977Z,8.11
2017-12-12T19:58:22.657Z,8.08
2017-12-12T20:00:50.449Z,8.26
2017-12-12T20:03:18.154Z,8.09
2017-12-12T20:05:45.736Z,8.24
2017-12-12T20:08:13.428Z,8.18
2017-12-12T20:10:40.998Z,8.18
2017-12-12T20:13:08.850Z,8.02
2017-12-12T20:15:36.446Z,8.29
2017-12-12T20:18:04.048Z,8.02
2017-12-12T20:20:31.632Z,8.04
2017-12-12T20:22:59.812Z,8.26
2017-12-12T20:25:27.637Z,7.66
2017-12-12T20:27:55.949Z,7.78
2017-12-12T20:30:24.209Z,7.93
2017-12-12T20:32:51.737Z,7.69
2017-12-12T20:35:19.409Z,7.23
2017-12-12T20:37:47.021Z,7.54
2017-12-12T20:40:14.807Z,7.04
2017-12-12T20:42:42.788Z,7.54
2017-12-12T20:45:10.481Z,7.58
2017-12-12T20:47:38.033Z,7.49
2017-12-12T20:50:05.608Z,7.44
2017-12-12T20:52:33.787Z,7.32
2017-12-12T20:55:01.356Z,7.57
2017-12-12T20:57:28.952Z,7.10
2017-12-12T20:59:56.527Z,7.22
2017-12-12T21:02:24.695Z,6.94
2017-12-12T21:04:52.404Z,6.99
2017-12-12T21:07:25.620Z,7.25
2017-12-12T21:09:53.422Z,7.36
2017-12-12T21:12:20.981Z,7.11
2017-12-12T21:14:48.573Z,6.91
2017-12-12T21:17:16.340Z,6.81
2017-12-12T21:19:43.894Z,6.81
2017-12-12T21:22:11.517Z,7.09
2017-12-12T21:24:39.084Z,7.11
2017-12-12T21:27:06.646Z,7.12
2017-12-12T21:29:34.552Z,6.56
2017-12-12T21:32:02.200Z,6.88
2017-12-12T21:34:30.034Z,7.17
2017-12-12T21:36:57.613Z,6.89
2017-12-12T21:39:25.309Z,7.12
2017-12-12T21:41:52.862Z,7.11
2017-12-12T21:44:20.451Z,7.40
2017-12-12T21:46:48.127Z,7.28
2017-12-12T21:49:15.991Z,6.69
2017-12-12T21:51:43.627Z,7.22
2017-12-12T21:54:11.241Z,6.82
2017-12-12T21:56:39.136Z,7.14
2017-12-12T21:59:06.783Z,7.32
2017-12-12T22:01:34.561Z,7.03
2017-12-12T22:04:03.318Z,7.28
2017-12-12T22:06:32.214Z,7.47
2017-12-12T22:09:03.365Z,7.42
2017-12-12T22:11:31.314Z,7.27
2017-12-12T22:13:58.856Z,7.22
2017-12-12T22:16:26.561Z,7.09
2017-12-12T22:18:54.097Z,6.86
2017-12-12T22:21:21.668Z,7.07
2017-12-12T22:23:49.266Z,6.90
2017-12-12T22:26:16.850Z,6.54
2017-12-12T22:28:44.468Z,6.64
2017-12-12T22:31:12.032Z,6.70
2017-12-12T22:33:39.957Z,6.76
2017-12-12T22:36:07.526Z,6.64
2017-12-12T22:38:35.176Z,6.60
2017-12-12T22:41:02.745Z,6.52
2017-12-12T22:43:30.305Z,6.67
2017-12-12T22:45:57.895Z,6.45
2017-12-12T22:48:25.673Z,6.96
2017-12-12T22:50:53.242Z,6.46
2017-12-12T22:53:20.795Z,6.34
2017-12-12T22:55:48.328Z,6.70
2017-12-12T22:58:15.881Z,6.53
2017-12-12T23:00:43.455Z,6.32
2017-12-12T23:03:10.977Z,6.61
2017-12-12T23:05:38.516Z,6.19
2017-12-12T23:08:06.098Z,6.65
2017-12-12T23:10:33.646Z,6.44
2017-12-12T23:13:01.472Z,6.36
2017-12-12T23:15:29.351Z,6.46
2017-12-12T23:17:56.906Z,6.61
2017-12-12T23:20:24.440Z,6.68
2017-12-12T23:22:52.000Z,6.79
2017-12-12T23:25:19.526Z,7.01
2017-12-12T23:27:47.076Z,6.70
2017-12-12T23:30:14.849Z,6.63
2017-12-12T23:32:42.417Z,7.07
2017-12-12T23:35:09.967Z,6.51
2017-12-12T23:37:37.542Z,7.08
2017-12-12T23:40:05.097Z,6.76
2017-12-12T23:42:32.651Z,6.87
2017-12-12T23:45:00.667Z,6.93
2017-12-12T23:47:28.258Z,6.96
2017-12-12T23:49:55.787Z,7.00
2017-12-12T23:52:23.364Z,7.21
2017-12-12T23:54:50.903Z,6.96
2017-12-12T23:57:19.309Z,7.05
2017-12-12T23:59:46.896Z,7.05
